Time;durP1;ratioP1;P1;durP2;ratioP2;P2;SDS_P1;SDS_P2;PMS_P1;PMS_P2;Temp;Humidity;BMP_temperature;BMP_pressure;BME280_temperature;BME280_humidity;BME280_pressure;Samples;Min_cycle;Max_cycle;Signal;HPM_P1;HPM_P2
2022/10/08 00:00:18;;;;;;;10.10;2.53;;;13.00;99.90;;;;;;4215788;28;20052;-85
2022/10/08 00:02:19;;;;;;;14.45;2.53;;;13.00;99.90;;;;;;4215254;28;20565;-85
2022/10/08 00:04:20;;;;;;;7.38;2.17;;;12.90;99.90;;;;;;4215359;28;20044;-84
2022/10/08 00:06:25;;;;;;;12.13;3.00;;;12.90;99.90;;;;;;4215131;28;20047;-84
2022/10/08 00:08:28;;;;;;;7.68;2.55;;;12.90;99.90;;;;;;4214941;28;20048;-86
2022/10/08 00:10:28;;;;;;;8.00;2.22;;;12.90;99.90;;;;;;4181000;28;20621;-86
2022/10/08 00:12:29;;;;;;;13.13;2.65;;;12.90;99.90;;;;;;4180865;28;20081;-85
2022/10/08 00:14:30;;;;;;;10.05;2.42;;;12.90;99.90;;;;;;4197070;28;20519;-86
2022/10/08 00:16:35;;;;;;;7.32;1.60;;;12.90;99.90;;;;;;4197300;28;20044;-86
2022/10/08 00:18:36;;;;;;;9.35;1.73;;;12.80;99.90;;;;;;4196768;28;20056;-85
2022/10/08 00:20:36;;;;;;;7.45;1.83;;;12.90;99.90;;;;;;4197514;28;20128;-85
2022/10/08 00:22:37;;;;;;;7.28;1.92;;;12.80;99.90;;;;;;4215316;28;20069;-86
2022/10/08 00:24:38;;;;;;;6.07;1.90;;;12.90;99.90;;;;;;4215019;28;20044;-85
2022/10/08 00:26:40;;;;;;;5.30;1.88;;;12.80;99.90;;;;;;4214789;28;20044;-85
2022/10/08 00:28:44;;;;;;;9.43;2.78;;;12.80;99.90;;;;;;4215006;28;20044;-85
2022/10/08 00:30:45;;;;;;;9.15;1.80;;;12.80;99.90;;;;;;4197034;28;20052;-85
2022/10/08 00:32:46;;;;;;;9.68;2.33;;;12.80;99.90;;;;;;4180650;28;20037;-85
2022/10/08 00:34:47;;;;;;;10.25;2.00;;;12.60;99.90;;;;;;4207756;28;20094;-85
2022/10/08 00:36:54;;;;;;;6.57;1.90;;;12.80;99.90;;;;;;4180190;28;20382;-85
2022/10/08 00:38:57;;;;;;;7.20;1.63;;;12.80;99.90;;;;;;4198472;28;20048;-85
2022/10/08 00:41:01;;;;;;;10.13;1.67;;;12.70;99.90;;;;;;4164195;28;20506;-85
2022/10/08 00:43:02;;;;;;;4.10;1.63;;;12.10;99.90;;;;;;4198678;28;20037;-85
2022/10/08 00:45:04;;;;;;;6.55;1.92;;;12.80;99.90;;;;;;4180913;28;20060;-86
2022/10/08 00:47:13;;;;;;;3.55;1.25;;;12.70;99.90;;;;;;4164600;28;20132;-85
2022/10/08 00:49:21;;;;;;;5.07;1.25;;;12.80;99.90;;;;;;4196898;28;20052;-86
2022/10/08 00:51:25;;;;;;;7.47;1.48;;;12.80;99.90;;;;;;4164718;28;20069;-86
2022/10/08 00:53:26;;;;;;;6.78;1.90;;;12.60;99.90;;;;;;4180886;28;20430;-86
2022/10/08 00:55:28;;;;;;;10.57;1.75;;;12.70;99.90;;;;;;4198966;28;20051;-86
2022/10/08 00:57:34;;;;;;;6.30;1.83;;;12.70;99.90;;;;;;4180645;28;20468;-85
2022/10/08 00:59:36;;;;;;;6.15;1.25;;;12.70;99.90;;;;;;4198803;28;20093;-85
2022/10/08 01:01:39;;;;;;;5.78;1.50;;;12.70;99.90;;;;;;4198276;28;20044;-86
2022/10/08 01:03:40;;;;;;;8.75;1.55;;;12.70;99.90;;;;;;4196431;28;20040;-86
2022/10/08 01:06:16;;;;;;;5.22;1.58;;;11.90;99.90;;;;;;4163787;28;20140;-85
2022/10/08 01:09:01;;;;;;;4.45;1.13;;;12.70;99.90;;;;;;4180355;28;20540;-86
2022/10/08 01:11:23;;;;;;;6.47;1.17;;;12.70;99.90;;;;;;4165006;28;20049;-85
2022/10/08 01:13:24;;;;;;;8.00;1.20;;;12.70;99.90;;;;;;4198459;28;20124;-85
2022/10/08 01:15:51;;;;;;;5.05;1.77;;;12.70;99.90;;;;;;4198174;28;20047;-85
2022/10/08 01:18:04;;;;;;;11.02;1.50;;;12.70;99.90;;;;;;4197836;28;20047;-85
2022/10/08 01:20:36;;;;;;;5.07;1.40;;;12.70;99.90;;;;;;4180317;28;20053;-85
2022/10/08 01:23:02;;;;;;;7.75;1.05;;;12.70;99.90;;;;;;4197891;28;20062;-85
2022/10/08 01:25:32;;;;;;;3.30;1.08;;;12.80;99.90;;;;;;4179840;28;20533;-85
2022/10/08 01:27:53;;;;;;;5.75;1.15;;;12.70;99.90;;;;;;4180449;28;20098;-85
2022/10/08 01:29:55;;;;;;;3.17;0.95;;;12.60;99.90;;;;;;4180344;28;20057;-85
2022/10/08 01:32:03;;;;;;;7.28;1.00;;;12.60;99.90;;;;;;4197595;28;20032;-84
2022/10/08 01:34:14;;;;;;;7.47;1.45;;;12.60;99.90;;;;;;4195607;28;20105;-85
2022/10/08 01:36:18;;;;;;;9.02;1.85;;;12.60;99.90;;;;;;4197936;28;20088;-85
2022/10/08 01:38:20;;;;;;;5.03;1.08;;;12.60;99.90;;;;;;4182861;28;20052;-84
2022/10/08 01:40:28;;;;;;;3.35;1.02;;;12.60;99.90;;;;;;4201080;28;20147;-84
2022/10/08 01:42:32;;;;;;;5.50;1.00;;;12.60;99.90;;;;;;4183497;28;20127;-85
2022/10/08 01:44:45;;;;;;;5.15;1.50;;;12.50;99.90;;;;;;4166506;28;20521;-85
2022/10/08 01:46:48;;;;;;;5.30;0.85;;;12.50;99.90;;;;;;4166942;28;20046;-85
2022/10/08 01:48:55;;;;;;;5.32;1.63;;;12.50;99.90;;;;;;4167175;28;20053;-86
2022/10/08 01:51:22;;;;;;;4.10;0.75;;;12.40;99.90;;;;;;4166454;28;20128;-85
2022/10/08 01:53:27;;;;;;;2.63;0.90;;;12.40;99.90;;;;;;4201470;28;20049;-84
2022/10/08 01:55:36;;;;;;;4.90;1.20;;;12.40;99.90;;;;;;4200873;28;20451;-84
2022/10/08 01:57:38;;;;;;;5.22;1.55;;;12.40;99.90;;;;;;4182991;28;20139;-85
2022/10/08 02:00:13;;;;;;;4.85;1.17;;;12.30;99.90;;;;;;4200052;28;20665;-86
2022/10/08 02:02:21;;;;;;;2.15;0.82;;;12.30;99.90;;;;;;4164636;28;20559;-85
2022/10/08 02:04:33;;;;;;;4.25;0.88;;;12.30;99.90;;;;;;4199694;28;20040;-86
2022/10/08 02:06:37;;;;;;;5.55;1.00;;;12.20;99.90;;;;;;4182342;28;20539;-86
2022/10/08 02:08:38;;;;;;;5.32;2.08;;;12.20;99.90;;;;;;4182909;28;20104;-85
2022/10/08 02:10:39;;;;;;;4.70;0.75;;;12.20;99.90;;;;;;4182594;28;20047;-85
2022/10/08 02:12:41;;;;;;;4.43;0.80;;;12.20;99.90;;;;;;4200262;28;20066;-85
2022/10/08 02:15:03;;;;;;;4.25;1.00;;;12.20;99.90;;;;;;4199986;28;20127;-85
2022/10/08 02:17:23;;;;;;;4.45;0.95;;;12.20;99.90;;;;;;4165402;28;20056;-85
2022/10/08 02:19:48;;;;;;;3.17;0.90;;;12.10;99.90;;;;;;4200136;28;20051;-85
2022/10/08 02:21:51;;;;;;;2.35;1.00;;;12.10;99.90;;;;;;4182745;28;20060;-85
2022/10/08 02:24:02;;;;;;;5.72;1.30;;;12.10;99.90;;;;;;4198837;28;20045;-85
2022/10/08 02:26:11;;;;;;;8.77;1.13;;;12.00;99.90;;;;;;4182253;28;20049;-85
2022/10/08 02:28:18;;;;;;;6.30;1.05;;;12.00;99.90;;;;;;4199697;28;20145;-85
2022/10/08 02:30:21;;;;;;;2.80;0.95;;;12.00;99.90;;;;;;4182614;28;20048;-85
2022/10/08 02:32:43;;;;;;;4.55;1.23;;;12.00;99.90;;;;;;4200329;28;20052;-85
2022/10/08 02:35:00;;;;;;;2.90;0.80;;;12.00;99.90;;;;;;4200311;28;20454;-84
2022/10/08 02:37:14;;;;;;;4.22;1.23;;;12.00;99.90;;;;;;4199305;28;20095;-85
2022/10/08 02:39:18;;;;;;;4.97;1.40;;;11.90;99.90;;;;;;4182003;28;20131;-85
2022/10/08 02:41:22;;;;;;;6.43;1.00;;;11.90;99.90;;;;;;4200254;28;20205;-85
2022/10/08 02:43:29;;;;;;;7.82;1.60;;;11.90;99.90;;;;;;4182178;28;20048;-85
2022/10/08 02:45:35;;;;;;;9.85;1.60;;;11.90;99.90;;;;;;4199836;28;20051;-85
2022/10/08 02:47:40;;;;;;;6.35;1.63;;;11.90;99.90;;;;;;4200024;28;20048;-85
2022/10/08 02:49:47;;;;;;;3.83;0.88;;;11.90;99.90;;;;;;4198303;28;20105;-85
2022/10/08 02:51:53;;;;;;;9.55;1.00;;;11.80;99.90;;;;;;4197626;28;20044;-85
2022/10/08 02:53:55;;;;;;;6.10;1.38;;;11.80;99.90;;;;;;4199320;28;20125;-85
2022/10/08 02:56:13;;;;;;;2.78;0.98;;;11.80;99.90;;;;;;4198379;28;20048;-86
2022/10/08 02:58:15;;;;;;;5.93;1.00;;;11.80;99.90;;;;;;4199720;28;20401;-85
2022/10/08 03:00:17;;;;;;;10.18;1.20;;;11.80;99.90;;;;;;4198215;28;20055;-86
2022/10/08 03:02:50;;;;;;;5.10;1.08;;;11.80;99.90;;;;;;4198259;28;20394;-85
2022/10/08 03:04:58;;;;;;;8.25;1.85;;;11.70;99.90;;;;;;4185917;28;20480;-84
2022/10/08 03:07:01;;;;;;;6.45;1.17;;;11.70;99.90;;;;;;4194495;28;20127;-85
2022/10/08 03:09:05;;;;;;;7.50;1.10;;;11.70;99.90;;;;;;4200677;28;20080;-84
2022/10/08 03:11:07;;;;;;;4.60;1.05;;;11.80;99.90;;;;;;4182588;28;20045;-84
2022/10/08 03:13:11;;;;;;;3.45;1.20;;;11.70;99.90;;;;;;4200212;28;20076;-85
2022/10/08 03:15:13;;;;;;;3.67;1.38;;;11.70;99.90;;;;;;4182639;28;20049;-84
2022/10/08 03:17:22;;;;;;;5.65;1.25;;;11.70;99.90;;;;;;4182545;28;20464;-84
2022/10/08 03:19:23;;;;;;;3.63;0.93;;;11.70;99.90;;;;;;4209948;28;20063;-84
2022/10/08 03:21:39;;;;;;;6.38;1.08;;;11.60;99.90;;;;;;4190874;28;20135;-84
2022/10/08 03:23:40;;;;;;;5.45;1.52;;;11.60;99.90;;;;;;4173888;28;20133;-84
2022/10/08 03:25:42;;;;;;;5.90;1.08;;;11.70;99.90;;;;;;4210361;28;20078;-86
2022/10/08 03:27:43;;;;;;;4.00;1.05;;;11.60;99.90;;;;;;4193061;28;20511;-85
2022/10/08 03:29:45;;;;;;;5.25;1.08;;;11.60;99.90;;;;;;4192308;28;20059;-86
2022/10/08 03:31:48;;;;;;;5.35;1.52;;;11.60;99.90;;;;;;4177577;28;20488;-84
2022/10/08 03:33:52;;;;;;;4.25;1.40;;;11.60;99.90;;;;;;4191633;28;20083;-85
2022/10/08 03:35:57;;;;;;;6.28;1.25;;;11.60;99.90;;;;;;4205746;28;20496;-86
2022/10/08 03:37:58;;;;;;;7.82;1.60;;;11.60;99.90;;;;;;4204219;28;20048;-85
2022/10/08 03:39:58;;;;;;;7.50;1.50;;;11.60;99.90;;;;;;4203650;28;20037;-86
2022/10/08 03:42:02;;;;;;;5.50;1.17;;;11.60;99.90;;;;;;4204501;28;20044;-85
2022/10/08 03:44:06;;;;;;;5.30;1.48;;;11.60;99.90;;;;;;4204372;28;20036;-86
2022/10/08 03:46:09;;;;;;;7.25;1.50;;;11.60;99.90;;;;;;4202104;28;20059;-86
2022/10/08 03:48:11;;;;;;;5.38;1.27;;;10.40;99.90;;;;;;4182290;28;20044;-85
2022/10/08 03:50:12;;;;;;;5.88;2.03;;;11.50;99.90;;;;;;4202041;28;20090;-86
2022/10/08 03:52:13;;;;;;;10.70;1.77;;;11.50;99.90;;;;;;4198170;28;20479;-86
2022/10/08 03:54:13;;;;;;;6.82;1.50;;;11.60;99.90;;;;;;4180537;28;20181;-86
2022/10/08 03:56:17;;;;;;;10.75;2.05;;;11.50;99.90;;;;;;4197192;28;20048;-84
2022/10/08 03:58:19;;;;;;;5.88;1.50;;;11.50;99.90;;;;;;4198852;28;20041;-84
2022/10/08 04:00:22;;;;;;;9.07;2.35;;;11.50;99.90;;;;;;4199056;28;20083;-84
2022/10/08 04:02:23;;;;;;;4.38;1.60;;;11.50;99.90;;;;;;4163810;28;20508;-85
2022/10/08 04:04:23;;;;;;;8.27;2.20;;;11.50;99.90;;;;;;4180842;28;20056;-85
2022/10/08 04:06:28;;;;;;;8.07;2.00;;;11.50;99.90;;;;;;4198293;28;20400;-84
2022/10/08 04:08:29;;;;;;;7.43;2.40;;;11.50;99.90;;;;;;4198464;28;20439;-85
2022/10/08 04:10:30;;;;;;;7.95;2.20;;;11.50;99.90;;;;;;4197918;28;20040;-85
2022/10/08 04:12:32;;;;;;;5.18;1.98;;;11.50;99.90;;;;;;4164358;28;20114;-84
2022/10/08 04:14:33;;;;;;;11.35;2.42;;;11.50;99.90;;;;;;4198795;28;20052;-85
2022/10/08 04:16:35;;;;;;;11.15;2.28;;;11.50;99.90;;;;;;4198630;28;20040;-85
2022/10/08 04:18:37;;;;;;;11.10;2.53;;;11.50;99.90;;;;;;4181251;28;20045;-85
2022/10/08 04:20:40;;;;;;;7.25;2.30;;;11.50;99.90;;;;;;4198331;28;20511;-85
2022/10/08 04:22:41;;;;;;;8.10;2.35;;;11.50;99.90;;;;;;4180889;28;20524;-86
2022/10/08 04:24:42;;;;;;;9.15;1.75;;;11.50;99.90;;;;;;4180699;28;20056;-86
2022/10/08 04:26:43;;;;;;;6.18;1.90;;;11.40;99.90;;;;;;4198252;28;20041;-85
2022/10/08 04:28:44;;;;;;;7.05;1.85;;;11.40;99.90;;;;;;4180366;28;20576;-85
2022/10/08 04:30:58;;;;;;;4.45;1.80;;;11.40;99.90;;;;;;4198152;28;20041;-85
2022/10/08 04:32:59;;;;;;;14.00;2.10;;;11.40;99.90;;;;;;4198153;28;20473;-85
2022/10/08 04:35:01;;;;;;;8.65;1.90;;;11.40;99.90;;;;;;4180498;28;20045;-85
2022/10/08 04:37:02;;;;;;;6.35;1.52;;;11.40;99.90;;;;;;4198023;28;20072;-85
2022/10/08 04:39:06;;;;;;;7.75;1.63;;;11.40;99.90;;;;;;4197985;28;20041;-85
2022/10/08 04:41:10;;;;;;;10.05;1.52;;;11.30;99.90;;;;;;4163933;28;20056;-85
2022/10/08 04:43:12;;;;;;;8.23;1.88;;;11.30;99.90;;;;;;4198366;28;20546;-85
2022/10/08 04:45:13;;;;;;;8.75;1.80;;;11.30;99.90;;;;;;4197701;28;20112;-85
2022/10/08 04:47:14;;;;;;;6.70;1.40;;;11.30;99.90;;;;;;4164319;28;20049;-85
2022/10/08 04:49:14;;;;;;;8.35;1.38;;;11.30;99.90;;;;;;4198361;28;20044;-85
2022/10/08 04:51:17;;;;;;;6.10;1.63;;;11.30;99.90;;;;;;4180399;28;20045;-85
2022/10/08 04:53:17;;;;;;;7.68;1.23;;;11.30;99.90;;;;;;4198951;28;20040;-85
2022/10/08 04:55:18;;;;;;;11.88;1.75;;;12.10;99.90;;;;;;4180792;28;20155;-85
2022/10/08 04:57:19;;;;;;;10.50;1.60;;;11.20;99.90;;;;;;4180764;28;20056;-85
2022/10/08 04:59:20;;;;;;;6.85;2.00;;;12.10;99.90;;;;;;4197992;28;20048;-85
2022/10/08 05:01:22;;;;;;;11.02;1.55;;;11.20;99.90;;;;;;4198199;28;20037;-85
2022/10/08 05:03:23;;;;;;;10.02;1.75;;;11.20;99.90;;;;;;4198313;28;20542;-85
2022/10/08 05:05:23;;;;;;;8.60;1.73;;;11.20;99.90;;;;;;4198249;28;20131;-85
2022/10/08 05:07:25;;;;;;;12.23;1.85;;;11.10;99.90;;;;;;4197923;28;20036;-87
2022/10/08 05:09:25;;;;;;;7.05;1.48;;;11.20;99.90;;;;;;4163633;28;20120;-85
2022/10/08 05:11:27;;;;;;;7.95;1.52;;;11.10;99.90;;;;;;4180916;28;20045;-85
2022/10/08 05:13:28;;;;;;;9.65;1.77;;;11.10;99.90;;;;;;4182933;28;20044;-85
2022/10/08 05:15:29;;;;;;;8.65;2.28;;;11.10;99.90;;;;;;4201281;28;20048;-85
2022/10/08 05:17:31;;;;;;;7.82;1.77;;;11.10;99.90;;;;;;4166544;28;20196;-85
2022/10/08 05:19:32;;;;;;;9.70;1.65;;;11.10;99.90;;;;;;4198946;28;20127;-85
2022/10/08 05:21:34;;;;;;;9.90;1.30;;;11.10;99.90;;;;;;4182665;28;20049;-85
2022/10/08 05:23:37;;;;;;;10.45;1.60;;;11.00;99.90;;;;;;4200545;28;20507;-85
2022/10/08 05:25:38;;;;;;;6.97;1.48;;;10.90;99.90;;;;;;4200522;28;20460;-85
2022/10/08 05:27:38;;;;;;;7.85;1.58;;;10.90;99.90;;;;;;4199954;28;20033;-85
2022/10/08 05:29:39;;;;;;;5.57;1.60;;;10.90;99.90;;;;;;4200361;28;20037;-85
2022/10/08 05:31:40;;;;;;;8.52;1.83;;;10.90;99.90;;;;;;4165614;28;20057;-85
2022/10/08 05:33:41;;;;;;;10.93;1.83;;;10.90;99.90;;;;;;4159466;28;20049;-85
2022/10/08 05:35:41;;;;;;;10.95;2.22;;;11.10;99.90;;;;;;4183918;28;20068;-85
2022/10/08 05:37:43;;;;;;;9.85;1.40;;;10.90;99.90;;;;;;4191493;28;20044;-85
2022/10/08 05:39:44;;;;;;;10.13;2.08;;;10.90;99.90;;;;;;4183125;28;20053;-85
2022/10/08 05:41:45;;;;;;;10.63;1.70;;;10.90;99.90;;;;;;4201342;28;20454;-85
2022/10/08 05:43:47;;;;;;;10.23;1.85;;;10.80;99.90;;;;;;4200991;28;20214;-85
2022/10/08 05:45:51;;;;;;;11.98;2.13;;;10.80;99.90;;;;;;4183431;28;20084;-85
2022/10/08 05:47:51;;;;;;;10.90;2.95;;;10.80;99.90;;;;;;4200654;28;20056;-84
2022/10/08 05:49:52;;;;;;;13.00;2.00;;;10.90;99.90;;;;;;4200846;28;20530;-85
2022/10/08 05:51:53;;;;;;;12.20;2.30;;;10.80;99.90;;;;;;4201116;28;20040;-85
2022/10/08 05:53:55;;;;;;;6.40;1.92;;;10.80;99.90;;;;;;4201214;28;20083;-85
2022/10/08 05:56:00;;;;;;;6.65;2.10;;;10.80;99.90;;;;;;4183413;28;20059;-85
2022/10/08 05:58:02;;;;;;;8.85;2.83;;;10.80;99.90;;;;;;4200627;28;20481;-85
2022/10/08 06:00:03;;;;;;;5.90;1.83;;;11.10;99.90;;;;;;4200800;28;20117;-85
2022/10/08 06:02:05;;;;;;;7.93;2.15;;;10.70;99.90;;;;;;4182815;28;20045;-86
2022/10/08 06:04:06;;;;;;;5.68;1.42;;;10.80;99.90;;;;;;4184043;28;20068;-86
2022/10/08 06:06:10;;;;;;;10.18;2.22;;;10.80;99.90;;;;;;4182506;28;20053;-85
2022/10/08 06:08:13;;;;;;;10.77;2.30;;;10.70;99.90;;;;;;4183668;28;20052;-86
2022/10/08 06:10:13;;;;;;;9.35;2.30;;;10.80;99.90;;;;;;4182910;28;20052;-85
2022/10/08 06:12:17;;;;;;;12.95;3.28;;;10.80;99.90;;;;;;4184155;28;20128;-85
2022/10/08 06:14:21;;;;;;;6.93;2.30;;;10.80;99.90;;;;;;4184371;28;20481;-86
2022/10/08 06:16:22;;;;;;;7.40;2.30;;;11.00;99.90;;;;;;4184873;28;20040;-87
2022/10/08 06:18:25;;;;;;;7.40;2.70;;;11.70;99.90;;;;;;4184862;28;20052;-86
2022/10/08 06:20:27;;;;;;;8.27;2.70;;;10.80;99.90;;;;;;4185994;28;20421;-87
2022/10/08 06:22:28;;;;;;;10.98;2.00;;;11.30;99.90;;;;;;4169122;28;20053;-86
2022/10/08 06:24:29;;;;;;;10.07;2.67;;;10.90;99.90;;;;;;4186713;28;20037;-86
2022/10/08 06:26:34;;;;;;;10.23;2.63;;;10.90;99.90;;;;;;4209374;28;20044;-87
2022/10/08 06:28:37;;;;;;;10.30;2.97;;;11.00;99.90;;;;;;4185799;28;20045;-87
2022/10/08 06:30:40;;;;;;;11.80;2.13;;;11.00;99.90;;;;;;4169604;28;20108;-87
2022/10/08 06:32:42;;;;;;;4.90;1.92;;;11.00;99.90;;;;;;4199661;28;20067;-86
2022/10/08 06:34:42;;;;;;;8.50;2.03;;;11.00;99.90;;;;;;4201490;28;20041;-87
2022/10/08 06:36:43;;;;;;;14.13;2.55;;;11.00;99.90;;;;;;4217026;28;20525;-87
2022/10/08 06:38:53;;;;;;;4.45;1.83;;;10.70;99.90;;;;;;4200669;28;20049;-86
2022/10/08 06:40:56;;;;;;;10.48;2.22;;;11.10;99.90;;;;;;4200589;28;20052;-86
2022/10/08 06:42:58;;;;;;;11.45;2.60;;;11.10;99.90;;;;;;4195288;28;20059;-87
2022/10/08 06:44:59;;;;;;;7.47;1.70;;;11.20;99.90;;;;;;4183348;28;20114;-87
2022/10/08 06:46:59;;;;;;;10.75;1.77;;;11.30;99.90;;;;;;4185304;28;20493;-86
2022/10/08 06:49:00;;;;;;;7.97;1.60;;;11.40;99.90;;;;;;4183464;28;20049;-86
2022/10/08 06:51:11;;;;;;;7.95;1.58;;;10.50;99.90;;;;;;4183799;28;20095;-88
2022/10/08 06:53:11;;;;;;;10.43;1.50;;;11.70;99.90;;;;;;4166497;28;20045;-87
2022/10/08 06:55:12;;;;;;;4.75;1.08;;;11.90;99.90;;;;;;4182957;28;20539;-87
2022/10/08 06:57:13;;;;;;;3.25;1.08;;;11.90;99.90;;;;;;4185121;28;20040;-87
2022/10/08 06:59:16;;;;;;;6.75;1.10;;;11.90;99.90;;;;;;4183068;28;20037;-86
2022/10/08 07:01:19;;;;;;;11.05;2.03;;;11.90;99.90;;;;;;4155377;28;20050;-86
2022/10/08 07:03:20;;;;;;;3.72;1.35;;;11.80;99.90;;;;;;4191011;28;20047;-86
2022/10/08 07:05:21;;;;;;;4.15;1.10;;;11.80;99.90;;;;;;4172944;28;20099;-86
2022/10/08 07:07:21;;;;;;;5.65;0.70;;;11.70;99.90;;;;;;4172222;28;20045;-85
2022/10/08 07:09:23;;;;;;;5.90;0.85;;;10.40;99.90;;;;;;4195432;28;20072;-87
2022/10/08 07:11:25;;;;;;;8.73;0.63;;;11.60;99.90;;;;;;4193408;28;20036;-87
2022/10/08 07:13:27;;;;;;;4.25;0.90;;;11.60;99.90;;;;;;4187430;28;20044;-86
2022/10/08 07:15:30;;;;;;;3.80;0.80;;;10.60;99.90;;;;;;4166392;28;20096;-87
2022/10/08 07:17:31;;;;;;;13.30;1.52;;;11.60;99.90;;;;;;4152705;28;20057;-87
2022/10/08 07:19:32;;;;;;;6.70;0.65;;;11.60;99.90;;;;;;4184515;28;20048;-87
2022/10/08 07:21:33;;;;;;;8.07;0.80;;;11.60;99.90;;;;;;4192707;28;20057;-87
2022/10/08 07:23:34;;;;;;;5.57;1.15;;;11.60;99.90;;;;;;4183057;28;20049;-88
2022/10/08 07:25:35;;;;;;;10.20;0.80;;;11.60;99.90;;;;;;4200081;28;20071;-89
2022/10/08 07:27:36;;;;;;;4.72;1.05;;;11.60;99.90;;;;;;4200769;28;20047;-90
2022/10/08 07:29:37;;;;;;;3.83;0.85;;;11.70;99.90;;;;;;4168003;28;20083;-88
2022/10/08 07:31:38;;;;;;;5.25;0.80;;;11.90;99.90;;;;;;4183126;28;20079;-88
2022/10/08 07:33:42;;;;;;;8.25;0.75;;;11.90;99.90;;;;;;4167839;28;20075;-86
2022/10/08 07:35:43;;;;;;;4.13;0.60;;;11.80;99.90;;;;;;4181085;28;20065;-85
2022/10/08 07:37:44;;;;;;;6.75;0.70;;;11.70;99.90;;;;;;4198812;28;20056;-83
2022/10/08 07:39:44;;;;;;;5.65;1.27;;;11.70;99.90;;;;;;4184059;28;20076;-88
2022/10/08 07:41:46;;;;;;;4.47;0.90;;;11.70;99.90;;;;;;4182507;28;20090;-87
2022/10/08 07:43:52;;;;;;;5.43;0.73;;;11.90;99.90;;;;;;4201776;28;20055;-89
2022/10/08 07:45:55;;;;;;;6.75;0.80;;;11.90;99.90;;;;;;4167220;28;20057;-88
2022/10/08 07:47:56;;;;;;;3.00;1.10;;;12.00;99.90;;;;;;4184463;28;20080;-89
2022/10/08 07:50:03;;;;;;;7.05;0.60;;;12.00;99.90;;;;;;4168087;28;20383;-86
2022/10/08 07:52:04;;;;;;;4.07;0.85;;;12.20;99.90;;;;;;4201180;28;20049;-89
2022/10/08 07:54:07;;;;;;;7.05;1.10;;;12.20;99.90;;;;;;4167520;28;20053;-87
2022/10/08 07:56:11;;;;;;;4.80;0.65;;;12.10;99.90;;;;;;4183571;28;20057;-87
2022/10/08 07:58:12;;;;;;;3.83;0.65;;;12.30;99.90;;;;;;4167285;28;20064;-87
2022/10/08 08:00:14;;;;;;;5.18;0.90;;;12.80;99.90;;;;;;4183371;28;20083;-88
2022/10/08 08:02:15;;;;;;;5.32;0.63;;;13.80;99.90;;;;;;4201065;28;20060;-87
2022/10/08 08:04:19;;;;;;;2.88;0.70;;;14.60;99.90;;;;;;4203376;28;20048;-87
2022/10/08 08:06:23;;;;;;;4.03;0.55;;;15.20;99.90;;;;;;4204458;28;20044;-88
2022/10/08 08:08:23;;;;;;;3.63;1.00;;;15.80;99.90;;;;;;4187572;28;20452;-87
2022/10/08 08:10:44;;;;;;;3.53;0.40;;;16.30;99.80;;;;;;4204719;28;20044;-88
2022/10/08 08:13:12;;;;;;;3.42;0.43;;;16.80;99.00;;;;;;4153045;28;20056;-90
2022/10/08 08:15:13;;;;;;;5.95;1.25;;;17.50;98.40;;;;;;4166488;28;20064;-86
2022/10/08 08:17:14;;;;;;;3.58;0.93;;;17.90;97.60;;;;;;4202024;28;20409;-89
2022/10/08 08:19:15;;;;;;;4.40;1.20;;;18.30;97.00;;;;;;4183841;28;20127;-89
2022/10/08 08:21:23;;;;;;;3.45;0.70;;;18.70;96.60;;;;;;4202585;28;20037;-89
2022/10/08 08:23:29;;;;;;;5.77;0.80;;;19.30;96.10;;;;;;4200747;28;20404;-90
2022/10/08 08:25:32;;;;;;;3.00;0.70;;;19.70;95.00;;;;;;4202723;28;20869;-90
2022/10/08 08:27:39;;;;;;;9.68;1.70;;;19.30;95.30;;;;;;4186813;28;20056;-90
2022/10/08 08:29:42;;;;;;;3.63;0.57;;;18.90;95.50;;;;;;4170143;28;20053;-88
2022/10/08 08:31:47;;;;;;;6.65;0.80;;;19.10;95.60;;;;;;4184368;28;20097;-89
2022/10/08 08:33:51;;;;;;;2.47;0.40;;;19.90;95.40;;;;;;4167964;28;20128;-92
2022/10/08 08:35:52;;;;;;;6.18;0.60;;;20.10;94.40;;;;;;4167492;28;20049;-90
2022/10/08 08:37:54;;;;;;;5.55;0.77;;;20.00;94.30;;;;;;4185815;28;20053;-92
2022/10/08 08:39:55;;;;;;;1.63;0.65;;;19.20;94.60;;;;;;4184470;28;20127;-92
2022/10/08 08:42:34;;;;;;;3.00;0.75;;;18.20;95.20;;;;;;4202312;28;20045;-92
2022/10/08 08:44:39;;;;;;;;;;;17.30;95.50;;;;;;4173948;28;20056;-88
2022/10/08 08:46:45;;;;;;;7.63;1.15;;;16.50;95.00;;;;;;4166228;28;20287;-86
2022/10/08 08:48:46;;;;;;;3.05;0.55;;;16.10;98.00;;;;;;4186249;28;20486;-86
2022/10/08 08:50:50;;;;;;;2.47;0.50;;;16.10;98.60;;;;;;4169311;28;20053;-87
2022/10/08 08:52:51;;;;;;;2.30;0.50;;;16.20;98.40;;;;;;4152380;28;20045;-86
2022/10/08 08:54:53;;;;;;;6.10;1.23;;;16.00;98.10;;;;;;4168798;28;20117;-87
2022/10/08 08:57:10;;;;;;;3.97;0.90;;;15.70;98.50;;;;;;4191713;28;20052;-87
2022/10/08 08:59:32;;;;;;;4.55;0.77;;;15.40;98.50;;;;;;4202952;28;20041;-87
2022/10/08 09:01:42;;;;;;;6.07;0.90;;;15.70;97.90;;;;;;4201526;28;20063;-86
2022/10/08 09:03:54;;;;;;;4.10;0.75;;;16.60;97.40;;;;;;4201705;28;20092;-87
2022/10/08 09:05:59;;;;;;;3.03;0.75;;;16.10;95.90;;;;;;4184630;28;20048;-87
2022/10/08 09:08:24;;;;;;;3.20;0.73;;;17.30;95.50;;;;;;4185982;28;20462;-87
2022/10/08 09:10:43;;;;;;;3.35;0.88;;;17.80;95.60;;;;;;4186541;28;20037;-87
2022/10/08 09:12:45;;;;;;;7.50;0.80;;;19.00;93.80;;;;;;4184892;28;20064;-88
2022/10/08 09:14:53;;;;;;;4.85;0.80;;;19.90;93.30;;;;;;4184453;28;20107;-88
2022/10/08 09:16:55;;;;;;;6.57;0.70;;;20.40;92.00;;;;;;4186716;28;20055;-87
2022/10/08 09:18:56;;;;;;;6.10;1.27;;;20.80;91.60;;;;;;4184452;28;20098;-86
2022/10/08 09:21:00;;;;;;;5.47;1.08;;;20.70;91.40;;;;;;4201865;28;20128;-87
2022/10/08 09:23:01;;;;;;;3.97;0.82;;;20.50;91.40;;;;;;4184468;28;20057;-88
2022/10/08 09:25:11;;;;;;;7.88;0.70;;;20.50;91.70;;;;;;4186027;28;20099;-88
2022/10/08 09:27:13;;;;;;;9.00;0.88;;;21.20;91.10;;;;;;4185796;28;20060;-88
2022/10/08 09:29:33;;;;;;;5.63;0.80;;;21.70;90.90;;;;;;4186352;28;20492;-88
2022/10/08 09:31:54;;;;;;;8.23;1.05;;;20.90;90.00;;;;;;4184878;28;20048;-88
2022/10/08 09:34:16;;;;;;;2.22;0.57;;;20.40;90.80;;;;;;4185920;28;20049;-87
2022/10/08 09:36:29;;;;;;;9.45;0.80;;;20.10;91.40;;;;;;4187222;28;20548;-86
2022/10/08 09:38:37;;;;;;;2.88;0.57;;;20.10;90.90;;;;;;4187246;28;20048;-88
2022/10/08 09:40:38;;;;;;;5.07;0.60;;;20.50;91.60;;;;;;4204314;28;20045;-88
2022/10/08 09:42:39;;;;;;;6.10;0.90;;;21.10;91.30;;;;;;4188986;28;20061;-88
2022/10/08 09:44:47;;;;;;;4.88;0.60;;;21.60;91.00;;;;;;4186379;28;20550;-91
2022/10/08 09:47:04;;;;;;;4.28;0.60;;;21.20;90.10;;;;;;4187097;28;20059;-88
2022/10/08 09:49:32;;;;;;;3.78;0.60;;;20.30;89.40;;;;;;4191762;28;20087;-87
2022/10/08 09:51:34;;;;;;;2.88;0.63;;;19.50;87.20;;;;;;4172611;28;20053;-87
2022/10/08 09:53:44;;;;;;;4.47;0.63;;;18.80;91.40;;;;;;4188811;28;20049;-88
2022/10/08 09:55:58;;;;;;;8.90;0.85;;;18.20;91.20;;;;;;4186517;28;20045;-88
2022/10/08 09:57:59;;;;;;;4.28;0.57;;;17.60;91.30;;;;;;4183888;28;20049;-87
2022/10/08 10:00:05;;;;;;;4.80;1.05;;;17.20;92.10;;;;;;4168238;28;20108;-88
2022/10/08 10:02:25;;;;;;;7.05;0.50;;;17.40;92.10;;;;;;4184820;28;20057;-88
2022/10/08 10:04:44;;;;;;;4.80;0.90;;;17.70;91.50;;;;;;4184202;28;20057;-87
2022/10/08 10:06:47;;;;;;;;;;;18.20;91.10;;;;;;4185339;28;20049;-87
2022/10/08 10:09:05;;;;;;;5.50;1.55;;;18.60;90.10;;;;;;4184717;28;19943;-87
2022/10/08 10:11:11;;;;;;;5.30;1.25;;;18.00;90.50;;;;;;4167732;28;20053;-88
2022/10/08 10:13:18;;;;;;;2.30;0.77;;;19.00;90.80;;;;;;4184491;28;20114;-88
2022/10/08 10:15:44;;;;;;;7.22;1.45;;;19.30;90.40;;;;;;4178183;28;20048;-87
2022/10/08 10:17:54;;;;;;;5.40;0.65;;;19.60;88.90;;;;;;4167903;28;20056;-87
2022/10/08 10:20:02;;;;;;;9.48;1.52;;;19.90;89.70;;;;;;4177951;28;20508;-88
2022/10/08 10:22:25;;;;;;;4.95;1.10;;;20.20;89.20;;;;;;4184033;28;20053;-88
2022/10/08 10:24:49;;;;;;;7.70;1.08;;;20.60;84.30;;;;;;4168635;28;20090;-87
2022/10/08 10:26:53;;;;;;;8.30;1.13;;;20.80;85.00;;;;;;4184645;28;20041;-87
2022/10/08 10:29:03;;;;;;;4.30;0.70;;;20.80;85.50;;;;;;4168328;28;20103;-87
2022/10/08 10:31:29;;;;;;;4.88;1.13;;;20.90;83.00;;;;;;4184500;28;20111;-87
2022/10/08 10:33:35;;;;;;;3.05;0.65;;;20.80;82.70;;;;;;4185504;28;20064;-88
2022/10/08 10:35:45;;;;;;;7.60;0.50;;;21.00;83.50;;;;;;4201706;28;20044;-88
2022/10/08 10:38:07;;;;;;;4.28;0.70;;;21.30;82.40;;;;;;4185531;28;20517;-88
2022/10/08 10:40:46;;;;;;;6.63;0.85;;;21.60;82.20;;;;;;4169765;28;20089;-88
2022/10/08 10:42:56;;;;;;;5.70;0.75;;;21.80;76.60;;;;;;4120915;28;20046;-89
2022/10/08 10:45:20;;;;;;;4.43;0.82;;;21.90;79.40;;;;;;4156041;28;20096;-88
2022/10/08 10:47:24;;;;;;;7.57;0.88;;;22.10;74.00;;;;;;4172048;28;20045;-88
2022/10/08 10:49:34;;;;;;;4.90;0.70;;;22.30;79.30;;;;;;4154287;28;20406;-88
2022/10/08 10:52:04;;;;;;;7.20;1.00;;;22.60;77.90;;;;;;4164465;28;20103;-87
2022/10/08 10:54:43;;;;;;;7.50;0.90;;;23.10;74.70;;;;;;4188561;28;20053;-87